sensor_id;sensor_type;location;lat;lon;timestamp;pressure;altitude;pressure_sealevel;temperature;humidity
72558;BME280;60583;50.094;8.748;2022-12-28T00:00:52;101263.50;;;4.52;86.91
72558;BME280;60583;50.094;8.748;2022-12-28T00:03:17;101258.91;;;4.44;87.32
72558;BME280;60583;50.094;8.748;2022-12-28T00:05:43;101247.06;;;4.39;87.53
72558;BME280;60583;50.094;8.748;2022-12-28T00:08:08;101245.53;;;4.36;87.80
72558;BME280;60583;50.094;8.748;2022-12-28T00:10:33;101247.91;;;4.39;87.52
72558;BME280;60583;50.094;8.748;2022-12-28T00:12:59;101248.44;;;4.33;87.35
72558;BME280;60583;50.094;8.748;2022-12-28T00:15:24;101248.75;;;4.40;87.32
72558;BME280;60583;50.094;8.748;2022-12-28T00:17:50;101247.06;;;4.39;87.12
72558;BME280;60583;50.094;8.748;2022-12-28T00:20:15;101228.03;;;4.26;88.15
72558;BME280;60583;50.094;8.748;2022-12-28T00:22:40;101226.78;;;4.20;87.91
72558;BME280;60583;50.094;8.748;2022-12-28T00:25:06;101219.25;;;4.16;88.25
72558;BME280;60583;50.094;8.748;2022-12-28T00:27:32;101222.47;;;4.19;88.46
72558;BME280;60583;50.094;8.748;2022-12-28T00:29:57;101220.25;;;4.34;87.86
72558;BME280;60583;50.094;8.748;2022-12-28T00:32:23;101217.34;;;4.37;87.37
72558;BME280;60583;50.094;8.748;2022-12-28T00:34:48;101207.47;;;4.39;87.61
72558;BME280;60583;50.094;8.748;2022-12-28T00:37:13;101194.44;;;4.37;87.26
72558;BME280;60583;50.094;8.748;2022-12-28T00:39:42;101196.09;;;4.48;87.69
72558;BME280;60583;50.094;8.748;2022-12-28T00:42:08;101193.03;;;4.53;87.16
72558;BME280;60583;50.094;8.748;2022-12-28T00:44:33;101181.78;;;4.50;87.13
72558;BME280;60583;50.094;8.748;2022-12-28T00:46:59;101168.97;;;4.46;87.98
72558;BME280;60583;50.094;8.748;2022-12-28T00:49:24;101158.44;;;4.56;87.53
72558;BME280;60583;50.094;8.748;2022-12-28T00:51:49;101161.78;;;4.48;87.52
72558;BME280;60583;50.094;8.748;2022-12-28T00:54:15;101162.88;;;4.55;87.27
72558;BME280;60583;50.094;8.748;2022-12-28T00:56:40;101155.09;;;4.63;87.02
72558;BME280;60583;50.094;8.748;2022-12-28T00:59:09;101139.25;;;4.63;86.92
72558;BME280;60583;50.094;8.748;2022-12-28T01:01:34;101138.41;;;4.63;87.52
72558;BME280;60583;50.094;8.748;2022-12-28T01:04:00;101127.56;;;4.66;86.87
72558;BME280;60583;50.094;8.748;2022-12-28T01:06:26;101139.34;;;4.71;87.21
72558;BME280;60583;50.094;8.748;2022-12-28T01:08:52;101127.66;;;4.74;87.25
72558;BME280;60583;50.094;8.748;2022-12-28T01:11:27;101126.72;;;4.65;87.24
72558;BME280;60583;50.094;8.748;2022-12-28T01:13:55;101114.59;;;4.72;87.59
72558;BME280;60583;50.094;8.748;2022-12-28T01:16:25;101122.97;;;4.68;87.64
72558;BME280;60583;50.094;8.748;2022-12-28T01:18:54;101119.16;;;4.80;87.54
72558;BME280;60583;50.094;8.748;2022-12-28T01:21:23;101124.19;;;4.83;87.79
72558;BME280;60583;50.094;8.748;2022-12-28T01:23:52;101110.41;;;4.79;88.08
72558;BME280;60583;50.094;8.748;2022-12-28T01:26:19;101116.69;;;4.78;87.69
72558;BME280;60583;50.094;8.748;2022-12-28T01:28:44;101108.16;;;4.84;87.44
72558;BME280;60583;50.094;8.748;2022-12-28T01:31:15;101106.53;;;4.83;87.20
72558;BME280;60583;50.094;8.748;2022-12-28T01:33:41;101094.16;;;4.74;87.17
72558;BME280;60583;50.094;8.748;2022-12-28T01:36:18;101088.59;;;4.77;88.09
72558;BME280;60583;50.094;8.748;2022-12-28T01:38:45;101085.28;;;4.75;87.66
72558;BME280;60583;50.094;8.748;2022-12-28T01:41:15;101076.34;;;4.76;88.32
72558;BME280;60583;50.094;8.748;2022-12-28T01:52:04;101087.03;;;4.84;87.92
72558;BME280;60583;50.094;8.748;2022-12-28T01:54:36;101078.44;;;4.82;88.24
72558;BME280;60583;50.094;8.748;2022-12-28T01:57:02;101073.81;;;4.84;88.13
72558;BME280;60583;50.094;8.748;2022-12-28T01:59:32;101060.31;;;4.87;87.80
72558;BME280;60583;50.094;8.748;2022-12-28T02:02:00;101063.94;;;4.86;88.09
72558;BME280;60583;50.094;8.748;2022-12-28T02:04:27;101069.63;;;4.91;88.12
72558;BME280;60583;50.094;8.748;2022-12-28T02:06:53;101078.22;;;5.03;87.60
72558;BME280;60583;50.094;8.748;2022-12-28T02:09:22;101062.41;;;4.93;88.71
72558;BME280;60583;50.094;8.748;2022-12-28T02:11:51;101054.16;;;4.96;88.07
72558;BME280;60583;50.094;8.748;2022-12-28T02:14:18;101060.09;;;5.08;87.59
72558;BME280;60583;50.094;8.748;2022-12-28T02:16:44;101065.50;;;5.16;87.55
72558;BME280;60583;50.094;8.748;2022-12-28T02:19:12;101048.97;;;5.04;88.02
72558;BME280;60583;50.094;8.748;2022-12-28T02:22:20;101065.34;;;5.18;87.87
72558;BME280;60583;50.094;8.748;2022-12-28T02:30:53;101053.75;;;5.18;87.80
72558;BME280;60583;50.094;8.748;2022-12-28T02:33:28;101045.03;;;5.18;87.68
72558;BME280;60583;50.094;8.748;2022-12-28T02:36:04;101039.28;;;5.23;87.90
72558;BME280;60583;50.094;8.748;2022-12-28T02:38:39;101040.53;;;5.18;87.85
72558;BME280;60583;50.094;8.748;2022-12-28T02:41:08;101030.75;;;5.29;87.61
72558;BME280;60583;50.094;8.748;2022-12-28T02:43:35;101030.06;;;5.27;88.12
72558;BME280;60583;50.094;8.748;2022-12-28T02:46:18;101021.28;;;5.36;87.51
72558;BME280;60583;50.094;8.748;2022-12-28T02:49:20;101015.22;;;5.43;87.20
72558;BME280;60583;50.094;8.748;2022-12-28T02:55:24;101005.47;;;5.44;87.13
72558;BME280;60583;50.094;8.748;2022-12-28T03:01:51;101006.75;;;5.40;87.47
72558;BME280;60583;50.094;8.748;2022-12-28T03:06:59;101004.50;;;5.45;87.18
72558;BME280;60583;50.094;8.748;2022-12-28T03:09:50;100991.72;;;5.40;87.74
72558;BME280;60583;50.094;8.748;2022-12-28T03:12:34;100986.66;;;5.47;86.66
72558;BME280;60583;50.094;8.748;2022-12-28T03:15:12;100992.63;;;5.49;87.09
72558;BME280;60583;50.094;8.748;2022-12-28T03:17:56;100992.19;;;5.53;86.66
72558;BME280;60583;50.094;8.748;2022-12-28T03:20:43;100992.56;;;5.41;87.10
72558;BME280;60583;50.094;8.748;2022-12-28T03:23:29;100988.03;;;5.51;86.61
72558;BME280;60583;50.094;8.748;2022-12-28T03:26:15;100991.34;;;5.53;86.60
72558;BME280;60583;50.094;8.748;2022-12-28T03:29:01;100982.94;;;5.40;86.87
72558;BME280;60583;50.094;8.748;2022-12-28T03:31:48;100978.63;;;5.39;87.09
72558;BME280;60583;50.094;8.748;2022-12-28T03:34:13;100971.41;;;5.41;87.19
72558;BME280;60583;50.094;8.748;2022-12-28T03:37:01;100975.56;;;5.43;86.68
72558;BME280;60583;50.094;8.748;2022-12-28T03:39:54;100965.13;;;5.42;86.53
72558;BME280;60583;50.094;8.748;2022-12-28T03:42:25;100952.13;;;5.31;87.34
72558;BME280;60583;50.094;8.748;2022-12-28T03:47:46;100948.03;;;5.36;87.21
72558;BME280;60583;50.094;8.748;2022-12-28T03:50:12;100940.44;;;5.33;87.12
72558;BME280;60583;50.094;8.748;2022-12-28T03:52:38;100933.25;;;5.26;87.32
72558;BME280;60583;50.094;8.748;2022-12-28T03:55:04;100934.91;;;5.27;87.69
72558;BME280;60583;50.094;8.748;2022-12-28T03:57:29;100935.91;;;5.26;87.83
72558;BME280;60583;50.094;8.748;2022-12-28T03:59:55;100928.19;;;5.32;87.62
72558;BME280;60583;50.094;8.748;2022-12-28T04:02:21;100917.81;;;5.39;87.63
72558;BME280;60583;50.094;8.748;2022-12-28T04:04:46;100916.00;;;5.39;87.83
72558;BME280;60583;50.094;8.748;2022-12-28T04:07:11;100917.97;;;5.37;87.65
72558;BME280;60583;50.094;8.748;2022-12-28T04:09:37;100903.56;;;5.32;88.22
72558;BME280;60583;50.094;8.748;2022-12-28T04:12:02;100893.22;;;5.38;88.08
72558;BME280;60583;50.094;8.748;2022-12-28T04:14:28;100890.56;;;5.38;87.91
72558;BME280;60583;50.094;8.748;2022-12-28T04:16:53;100902.97;;;5.38;88.51
72558;BME280;60583;50.094;8.748;2022-12-28T04:19:19;100891.75;;;5.44;88.02
72558;BME280;60583;50.094;8.748;2022-12-28T04:21:44;100887.00;;;5.47;87.71
72558;BME280;60583;50.094;8.748;2022-12-28T04:24:09;100893.44;;;5.45;87.97
72558;BME280;60583;50.094;8.748;2022-12-28T04:26:35;100890.47;;;5.48;88.16
72558;BME280;60583;50.094;8.748;2022-12-28T04:29:00;100885.94;;;5.58;87.80
72558;BME280;60583;50.094;8.748;2022-12-28T04:31:28;100884.88;;;5.51;88.10
72558;BME280;60583;50.094;8.748;2022-12-28T04:33:56;100887.72;;;5.57;87.51
72558;BME280;60583;50.094;8.748;2022-12-28T04:36:22;100880.16;;;5.62;87.94
72558;BME280;60583;50.094;8.748;2022-12-28T04:38:47;100869.91;;;5.59;87.88
72558;BME280;60583;50.094;8.748;2022-12-28T04:41:13;100863.00;;;5.66;87.46
72558;BME280;60583;50.094;8.748;2022-12-28T04:43:38;100856.63;;;5.77;87.42
72558;BME280;60583;50.094;8.748;2022-12-28T04:46:11;100856.91;;;5.74;87.12
72558;BME280;60583;50.094;8.748;2022-12-28T04:48:37;100863.72;;;5.76;87.52
72558;BME280;60583;50.094;8.748;2022-12-28T04:51:14;100863.59;;;5.78;87.35
72558;BME280;60583;50.094;8.748;2022-12-28T04:53:40;100864.66;;;5.85;87.11
72558;BME280;60583;50.094;8.748;2022-12-28T04:56:07;100850.72;;;5.83;87.48
72558;BME280;60583;50.094;8.748;2022-12-28T04:58:34;100849.47;;;5.95;86.82
72558;BME280;60583;50.094;8.748;2022-12-28T05:03:28;100847.19;;;6.00;86.62
72558;BME280;60583;50.094;8.748;2022-12-28T05:05:59;100841.91;;;6.00;86.69
72558;BME280;60583;50.094;8.748;2022-12-28T05:08:24;100838.28;;;6.01;86.74
72558;BME280;60583;50.094;8.748;2022-12-28T05:10:50;100837.50;;;6.09;86.27
72558;BME280;60583;50.094;8.748;2022-12-28T05:13:15;100833.69;;;6.11;86.25
72558;BME280;60583;50.094;8.748;2022-12-28T05:15:41;100832.34;;;6.07;86.31
72558;BME280;60583;50.094;8.748;2022-12-28T05:18:06;100838.03;;;6.20;86.16
72558;BME280;60583;50.094;8.748;2022-12-28T05:20:31;100833.22;;;6.16;86.37
72558;BME280;60583;50.094;8.748;2022-12-28T05:22:57;100831.75;;;6.21;85.92
72558;BME280;60583;50.094;8.748;2022-12-28T05:25:22;100830.91;;;6.21;86.32
72558;BME280;60583;50.094;8.748;2022-12-28T05:27:47;100831.06;;;6.19;85.80
72558;BME280;60583;50.094;8.748;2022-12-28T05:30:13;100824.97;;;6.27;85.97
72558;BME280;60583;50.094;8.748;2022-12-28T05:32:38;100829.47;;;6.26;85.82
72558;BME280;60583;50.094;8.748;2022-12-28T05:35:04;100812.06;;;6.24;86.02
72558;BME280;60583;50.094;8.748;2022-12-28T05:37:29;100821.50;;;6.34;85.45
72558;BME280;60583;50.094;8.748;2022-12-28T05:39:55;100806.28;;;6.28;85.55
72558;BME280;60583;50.094;8.748;2022-12-28T05:42:20;100813.56;;;6.34;86.03
72558;BME280;60583;50.094;8.748;2022-12-28T05:44:46;100790.25;;;6.38;85.64
72558;BME280;60583;50.094;8.748;2022-12-28T05:47:11;100790.09;;;6.39;85.45
72558;BME280;60583;50.094;8.748;2022-12-28T05:49:38;100783.00;;;6.48;85.08
72558;BME280;60583;50.094;8.748;2022-12-28T05:52:03;100790.44;;;6.53;84.77
72558;BME280;60583;50.094;8.748;2022-12-28T05:54:28;100782.16;;;6.48;85.19
72558;BME280;60583;50.094;8.748;2022-12-28T05:56:54;100792.25;;;6.52;85.36
72558;BME280;60583;50.094;8.748;2022-12-28T05:59:19;100776.88;;;6.48;84.87
72558;BME280;60583;50.094;8.748;2022-12-28T06:01:45;100777.69;;;6.48;85.17
72558;BME280;60583;50.094;8.748;2022-12-28T06:04:17;100786.16;;;6.52;85.32
72558;BME280;60583;50.094;8.748;2022-12-28T06:06:44;100772.25;;;6.58;84.98
72558;BME280;60583;50.094;8.748;2022-12-28T06:09:11;100775.91;;;6.57;85.23
72558;BME280;60583;50.094;8.748;2022-12-28T06:11:36;100765.63;;;6.54;85.25
72558;BME280;60583;50.094;8.748;2022-12-28T06:14:02;100759.31;;;6.55;85.22
72558;BME280;60583;50.094;8.748;2022-12-28T06:16:32;100759.31;;;6.55;85.35
72558;BME280;60583;50.094;8.748;2022-12-28T06:18:57;100765.13;;;6.58;85.24
72558;BME280;60583;50.094;8.748;2022-12-28T06:21:25;100759.66;;;6.60;85.18
72558;BME280;60583;50.094;8.748;2022-12-28T06:23:53;100761.34;;;6.61;85.11
72558;BME280;60583;50.094;8.748;2022-12-28T06:26:20;100766.63;;;6.61;84.73
72558;BME280;60583;50.094;8.748;2022-12-28T06:28:46;100759.00;;;6.58;85.42
72558;BME280;60583;50.094;8.748;2022-12-28T06:33:40;100755.88;;;6.54;84.88
72558;BME280;60583;50.094;8.748;2022-12-28T06:36:16;100752.72;;;6.59;85.16
72558;BME280;60583;50.094;8.748;2022-12-28T06:38:42;100755.69;;;6.56;84.94
72558;BME280;60583;50.094;8.748;2022-12-28T06:41:09;100748.25;;;6.51;85.18
72558;BME280;60583;50.094;8.748;2022-12-28T06:43:36;100748.41;;;6.58;84.79
72558;BME280;60583;50.094;8.748;2022-12-28T06:46:02;100753.56;;;6.59;84.70
72558;BME280;60583;50.094;8.748;2022-12-28T06:48:30;100737.16;;;6.56;85.44
72558;BME280;60583;50.094;8.748;2022-12-28T06:51:00;100735.47;;;6.55;85.11
72558;BME280;60583;50.094;8.748;2022-12-28T06:53:28;100740.78;;;6.55;85.18
72558;BME280;60583;50.094;8.748;2022-12-28T06:55:54;100740.97;;;6.53;85.25
72558;BME280;60583;50.094;8.748;2022-12-28T06:58:21;100737.78;;;6.50;84.89
72558;BME280;60583;50.094;8.748;2022-12-28T07:00:46;100737.16;;;6.56;84.67
72558;BME280;60583;50.094;8.748;2022-12-28T07:03:12;100741.13;;;6.52;84.61
72558;BME280;60583;50.094;8.748;2022-12-28T07:05:37;100739.47;;;6.51;84.80
72558;BME280;60583;50.094;8.748;2022-12-28T07:08:03;100727.53;;;6.55;85.02
72558;BME280;60583;50.094;8.748;2022-12-28T07:10:28;100733.16;;;6.43;85.51
72558;BME280;60583;50.094;8.748;2022-12-28T07:12:53;100745.41;;;6.44;85.52
72558;BME280;60583;50.094;8.748;2022-12-28T07:15:19;100723.06;;;6.47;84.80
72558;BME280;60583;50.094;8.748;2022-12-28T07:17:44;100728.53;;;6.46;85.23
72558;BME280;60583;50.094;8.748;2022-12-28T07:20:10;100740.44;;;6.41;84.36
72558;BME280;60583;50.094;8.748;2022-12-28T07:22:36;100725.88;;;6.37;84.94
72558;BME280;60583;50.094;8.748;2022-12-28T07:25:01;100715.44;;;6.36;84.73
72558;BME280;60583;50.094;8.748;2022-12-28T07:27:27;100735.97;;;6.34;84.80
72558;BME280;60583;50.094;8.748;2022-12-28T07:29:52;100718.91;;;6.44;84.25
72558;BME280;60583;50.094;8.748;2022-12-28T07:32:17;100725.03;;;6.29;84.51
72558;BME280;60583;50.094;8.748;2022-12-28T07:34:43;100724.84;;;6.22;85.46
72558;BME280;60583;50.094;8.748;2022-12-28T07:37:08;100722.72;;;6.26;84.85
72558;BME280;60583;50.094;8.748;2022-12-28T07:39:33;100723.72;;;6.33;84.71
72558;BME280;60583;50.094;8.748;2022-12-28T07:42:00;100717.25;;;6.35;84.43
72558;BME280;60583;50.094;8.748;2022-12-28T07:44:30;100717.91;;;6.37;85.18
72558;BME280;60583;50.094;8.748;2022-12-28T07:46:55;100715.13;;;6.39;84.67
72558;BME280;60583;50.094;8.748;2022-12-28T07:49:21;100726.88;;;6.36;85.16
72558;BME280;60583;50.094;8.748;2022-12-28T07:51:46;100701.66;;;6.24;85.27
72558;BME280;60583;50.094;8.748;2022-12-28T07:54:11;100699.72;;;6.26;85.34
72558;BME280;60583;50.094;8.748;2022-12-28T07:56:37;100710.31;;;6.42;84.49
72558;BME280;60583;50.094;8.748;2022-12-28T07:59:03;100701.53;;;6.42;84.70
72558;BME280;60583;50.094;8.748;2022-12-28T08:01:30;100704.69;;;6.46;84.78
72558;BME280;60583;50.094;8.748;2022-12-28T08:03:58;100688.28;;;6.42;84.55
72558;BME280;60583;50.094;8.748;2022-12-28T08:06:25;100693.78;;;6.49;84.57
72558;BME280;60583;50.094;8.748;2022-12-28T08:08:53;100681.50;;;6.48;84.87
72558;BME280;60583;50.094;8.748;2022-12-28T08:11:22;100679.50;;;6.50;84.45
72558;BME280;60583;50.094;8.748;2022-12-28T08:13:49;100680.22;;;6.52;84.57
72558;BME280;60583;50.094;8.748;2022-12-28T08:16:17;100677.88;;;6.57;84.65
72558;BME280;60583;50.094;8.748;2022-12-28T08:18:43;100673.25;;;6.59;84.69
72558;BME280;60583;50.094;8.748;2022-12-28T08:21:17;100675.91;;;6.67;84.20
72558;BME280;60583;50.094;8.748;2022-12-28T08:23:43;100645.75;;;6.43;84.42
72558;BME280;60583;50.094;8.748;2022-12-28T08:26:11;100675.56;;;6.54;84.87
72558;BME280;60583;50.094;8.748;2022-12-28T08:28:38;100673.72;;;6.62;84.43
72558;BME280;60583;50.094;8.748;2022-12-28T08:31:05;100680.50;;;6.65;84.10
72558;BME280;60583;50.094;8.748;2022-12-28T08:33:31;100677.88;;;6.65;84.28
72558;BME280;60583;50.094;8.748;2022-12-28T08:35:57;100671.25;;;6.69;84.21
72558;BME280;60583;50.094;8.748;2022-12-28T08:38:22;100663.63;;;6.82;83.97
72558;BME280;60583;50.094;8.748;2022-12-28T08:40:56;100660.81;;;6.83;84.18
72558;BME280;60583;50.094;8.748;2022-12-28T08:43:21;100696.09;;;6.92;83.56
72558;BME280;60583;50.094;8.748;2022-12-28T08:46:00;100673.72;;;6.94;83.68
72558;BME280;60583;50.094;8.748;2022-12-28T08:48:26;100671.22;;;6.93;83.75
72558;BME280;60583;50.094;8.748;2022-12-28T08:50:52;100671.22;;;7.01;83.91
72558;BME280;60583;50.094;8.748;2022-12-28T08:53:18;100661.75;;;7.06;83.00
72558;BME280;60583;50.094;8.748;2022-12-28T08:55:43;100670.50;;;7.15;83.08
72558;BME280;60583;50.094;8.748;2022-12-28T08:58:09;100674.16;;;7.22;83.40
72558;BME280;60583;50.094;8.748;2022-12-28T09:00:34;100677.59;;;7.31;82.99
72558;BME280;60583;50.094;8.748;2022-12-28T09:02:59;100671.13;;;7.33;82.58
72558;BME280;60583;50.094;8.748;2022-12-28T09:05:25;100689.69;;;7.33;82.63
72558;BME280;60583;50.094;8.748;2022-12-28T09:07:51;100676.09;;;7.36;82.30
72558;BME280;60583;50.094;8.748;2022-12-28T09:10:16;100674.94;;;7.39;82.81
72558;BME280;60583;50.094;8.748;2022-12-28T09:12:42;100674.41;;;7.43;82.26
72558;BME280;60583;50.094;8.748;2022-12-28T09:15:07;100700.28;;;7.49;81.73
72558;BME280;60583;50.094;8.748;2022-12-28T09:17:33;100713.53;;;7.57;81.18
72558;BME280;60583;50.094;8.748;2022-12-28T09:19:58;100698.56;;;7.64;81.28
72558;BME280;60583;50.094;8.748;2022-12-28T09:22:24;100701.53;;;7.69;81.72
72558;BME280;60583;50.094;8.748;2022-12-28T09:24:49;100693.91;;;7.66;81.38
72558;BME280;60583;50.094;8.748;2022-12-28T09:27:14;100681.81;;;7.64;80.36
72558;BME280;60583;50.094;8.748;2022-12-28T09:29:40;100691.25;;;7.66;80.77
72558;BME280;60583;50.094;8.748;2022-12-28T09:32:05;100695.25;;;7.62;82.02
72558;BME280;60583;50.094;8.748;2022-12-28T09:34:30;100688.25;;;7.69;81.39
72558;BME280;60583;50.094;8.748;2022-12-28T09:36:56;100682.59;;;7.72;81.53
72558;BME280;60583;50.094;8.748;2022-12-28T09:39:22;100711.81;;;7.72;80.57
72558;BME280;60583;50.094;8.748;2022-12-28T09:44:52;100697.50;;;7.73;81.65
72558;BME280;60583;50.094;8.748;2022-12-28T09:55:32;100709.78;;;7.75;81.87
72558;BME280;60583;50.094;8.748;2022-12-28T09:57:58;100683.56;;;7.80;80.72
72558;BME280;60583;50.094;8.748;2022-12-28T10:00:40;100692.97;;;7.90;80.70
72558;BME280;60583;50.094;8.748;2022-12-28T10:03:14;100690.47;;;7.89;81.07
72558;BME280;60583;50.094;8.748;2022-12-28T10:05:41;100674.69;;;7.95;80.55
72558;BME280;60583;50.094;8.748;2022-12-28T10:08:10;100678.94;;;8.04;79.97
72558;BME280;60583;50.094;8.748;2022-12-28T10:10:37;100678.84;;;7.98;80.59
72558;BME280;60583;50.094;8.748;2022-12-28T10:13:14;100701.38;;;8.02;80.77
72558;BME280;60583;50.094;8.748;2022-12-28T10:15:40;100697.09;;;7.93;80.60
72558;BME280;60583;50.094;8.748;2022-12-28T10:18:06;100698.06;;;8.00;80.72
72558;BME280;60583;50.094;8.748;2022-12-28T10:20:31;100701.06;;;7.97;80.60
72558;BME280;60583;50.094;8.748;2022-12-28T10:22:57;100688.09;;;8.02;81.09
72558;BME280;60583;50.094;8.748;2022-12-28T10:25:24;100692.91;;;7.98;81.17
72558;BME280;60583;50.094;8.748;2022-12-28T10:27:51;100680.97;;;8.02;80.12
72558;BME280;60583;50.094;8.748;2022-12-28T10:30:21;100672.16;;;8.02;80.61
72558;BME280;60583;50.094;8.748;2022-12-28T10:32:56;100670.88;;;7.98;80.84
72558;BME280;60583;50.094;8.748;2022-12-28T10:35:35;100674.50;;;7.97;80.32
72558;BME280;60583;50.094;8.748;2022-12-28T10:38:06;100675.66;;;8.02;80.07
72558;BME280;60583;50.094;8.748;2022-12-28T10:40:42;100665.47;;;8.06;80.49
72558;BME280;60583;50.094;8.748;2022-12-28T10:43:17;100656.22;;;8.02;80.94
72558;BME280;60583;50.094;8.748;2022-12-28T10:45:50;100655.09;;;7.96;80.25
72558;BME280;60583;50.094;8.748;2022-12-28T10:48:21;100648.59;;;7.99;80.76
72558;BME280;60583;50.094;8.748;2022-12-28T10:50:52;100648.91;;;8.04;80.39
72558;BME280;60583;50.094;8.748;2022-12-28T10:53:26;100645.22;;;8.13;80.41
72558;BME280;60583;50.094;8.748;2022-12-28T10:58:36;100636.56;;;8.11;80.67
72558;BME280;60583;50.094;8.748;2022-12-28T11:08:37;100627.56;;;8.20;78.86
72558;BME280;60583;50.094;8.748;2022-12-28T11:11:04;100632.53;;;8.23;78.86
72558;BME280;60583;50.094;8.748;2022-12-28T11:13:29;100634.16;;;8.24;79.08
72558;BME280;60583;50.094;8.748;2022-12-28T11:15:55;100601.41;;;8.09;79.07
72558;BME280;60583;50.094;8.748;2022-12-28T11:18:21;100621.69;;;8.32;77.87
72558;BME280;60583;50.094;8.748;2022-12-28T11:20:49;100631.13;;;8.35;78.23
72558;BME280;60583;50.094;8.748;2022-12-28T11:23:23;100616.53;;;8.31;77.49
72558;BME280;60583;50.094;8.748;2022-12-28T11:25:50;100615.81;;;8.37;78.43
72558;BME280;60583;50.094;8.748;2022-12-28T11:28:20;100603.91;;;8.33;77.45
72558;BME280;60583;50.094;8.748;2022-12-28T11:30:48;100597.59;;;8.34;77.63
72558;BME280;60583;50.094;8.748;2022-12-28T11:33:33;100591.09;;;8.37;78.09
72558;BME280;60583;50.094;8.748;2022-12-28T11:36:02;100598.06;;;8.38;78.46
72558;BME280;60583;50.094;8.748;2022-12-28T11:38:48;100580.94;;;8.40;78.12
72558;BME280;60583;50.094;8.748;2022-12-28T11:43:50;100565.91;;;8.47;78.32
72558;BME280;60583;50.094;8.748;2022-12-28T11:48:47;100557.59;;;8.50;77.30
72558;BME280;60583;50.094;8.748;2022-12-28T11:51:25;100554.38;;;8.55;77.77
72558;BME280;60583;50.094;8.748;2022-12-28T11:53:54;100547.69;;;8.59;77.31
72558;BME280;60583;50.094;8.748;2022-12-28T11:56:24;100544.50;;;8.63;77.46
72558;BME280;60583;50.094;8.748;2022-12-28T12:14:56;100512.03;;;8.97;77.70
72558;BME280;60583;50.094;8.748;2022-12-28T12:17:32;100512.50;;;9.01;77.26
72558;BME280;60583;50.094;8.748;2022-12-28T12:20:05;100510.09;;;9.20;76.15
72558;BME280;60583;50.094;8.748;2022-12-28T12:22:55;100503.00;;;9.27;75.86
72558;BME280;60583;50.094;8.748;2022-12-28T12:25:37;100503.81;;;9.28;76.15
72558;BME280;60583;50.094;8.748;2022-12-28T12:28:30;100504.66;;;9.28;76.51
72558;BME280;60583;50.094;8.748;2022-12-28T12:30:57;100492.25;;;9.35;76.70
72558;BME280;60583;50.094;8.748;2022-12-28T12:33:30;100510.03;;;9.35;76.36
72558;BME280;60583;50.094;8.748;2022-12-28T12:38:58;100474.50;;;9.21;76.40
72558;BME280;60583;50.094;8.748;2022-12-28T12:44:15;100477.44;;;9.12;77.10
72558;BME280;60583;50.094;8.748;2022-12-28T12:47:01;100475.69;;;9.19;77.16
72558;BME280;60583;50.094;8.748;2022-12-28T12:50:06;100472.25;;;9.25;76.73
72558;BME280;60583;50.094;8.748;2022-12-28T12:52:46;100477.69;;;9.17;76.61
72558;BME280;60583;50.094;8.748;2022-12-28T12:57:53;100472.94;;;9.12;76.76
72558;BME280;60583;50.094;8.748;2022-12-28T13:00:30;100463.31;;;9.11;76.60
72558;BME280;60583;50.094;8.748;2022-12-28T13:03:11;100464.41;;;9.17;76.53
72558;BME280;60583;50.094;8.748;2022-12-28T13:05:41;100453.69;;;9.10;76.98
72558;BME280;60583;50.094;8.748;2022-12-28T13:08:18;100447.16;;;9.13;76.60
72558;BME280;60583;50.094;8.748;2022-12-28T13:10:44;100455.53;;;9.10;76.91
72558;BME280;60583;50.094;8.748;2022-12-28T13:13:27;100442.69;;;9.13;76.66
72558;BME280;60583;50.094;8.748;2022-12-28T13:15:58;100445.13;;;9.15;76.92
72558;BME280;60583;50.094;8.748;2022-12-28T13:18:25;100450.47;;;9.15;77.26
72558;BME280;60583;50.094;8.748;2022-12-28T13:23:20;100452.13;;;9.16;76.34
72558;BME280;60583;50.094;8.748;2022-12-28T13:25:48;100443.50;;;9.14;76.53
72558;BME280;60583;50.094;8.748;2022-12-28T13:31:08;100441.84;;;9.13;77.40
72558;BME280;60583;50.094;8.748;2022-12-28T13:33:35;100437.00;;;9.16;76.79
72558;BME280;60583;50.094;8.748;2022-12-28T13:36:12;100429.19;;;9.15;77.27
72558;BME280;60583;50.094;8.748;2022-12-28T13:38:38;100411.13;;;9.10;77.12
72558;BME280;60583;50.094;8.748;2022-12-28T13:41:15;100425.88;;;9.13;76.81
72558;BME280;60583;50.094;8.748;2022-12-28T13:46:15;100417.91;;;9.13;77.49
72558;BME280;60583;50.094;8.748;2022-12-28T13:48:45;100416.50;;;9.17;77.19
72558;BME280;60583;50.094;8.748;2022-12-28T13:51:14;100421.91;;;9.23;77.48
72558;BME280;60583;50.094;8.748;2022-12-28T13:53:44;100422.03;;;9.15;76.99
72558;BME280;60583;50.094;8.748;2022-12-28T13:56:13;100414.50;;;9.19;77.31
72558;BME280;60583;50.094;8.748;2022-12-28T13:58:42;100417.91;;;9.13;77.66
72558;BME280;60583;50.094;8.748;2022-12-28T14:01:16;100424.22;;;9.12;77.49
72558;BME280;60583;50.094;8.748;2022-12-28T14:03:43;100408.53;;;9.17;77.93
72558;BME280;60583;50.094;8.748;2022-12-28T14:06:12;100409.56;;;9.16;77.15
72558;BME280;60583;50.094;8.748;2022-12-28T14:08:39;100400.69;;;9.09;77.52
72558;BME280;60583;50.094;8.748;2022-12-28T14:11:06;100394.72;;;9.07;77.48
72558;BME280;60583;50.094;8.748;2022-12-28T14:13:34;100390.31;;;9.14;77.56
72558;BME280;60583;50.094;8.748;2022-12-28T14:16:00;100386.81;;;9.13;77.22
72558;BME280;60583;50.094;8.748;2022-12-28T14:18:27;100388.97;;;9.03;77.75
72558;BME280;60583;50.094;8.748;2022-12-28T14:20:56;100385.34;;;9.11;77.31
72558;BME280;60583;50.094;8.748;2022-12-28T14:23:25;100374.47;;;9.06;77.43
72558;BME280;60583;50.094;8.748;2022-12-28T14:25:53;100380.53;;;8.99;77.46
72558;BME280;60583;50.094;8.748;2022-12-28T14:28:28;100382.44;;;9.06;77.57
72558;BME280;60583;50.094;8.748;2022-12-28T14:30:55;100371.97;;;9.04;77.94
72558;BME280;60583;50.094;8.748;2022-12-28T14:33:26;100371.81;;;9.06;78.06
72558;BME280;60583;50.094;8.748;2022-12-28T14:35:55;100370.97;;;9.05;78.05
72558;BME280;60583;50.094;8.748;2022-12-28T14:38:26;100364.81;;;9.05;78.25
72558;BME280;60583;50.094;8.748;2022-12-28T14:40:54;100379.78;;;9.06;77.52